sensor_id;sensor_type;location;lat;lon;timestamp;P1;durP1;ratioP1;P2;durP2;ratioP2
75935;SDS011;64614;32.062;34.834;2023-03-14T00:00:44;7.88;;;3.65;;
75935;SDS011;64614;32.062;34.834;2023-03-14T00:03:11;6.85;;;3.20;;
75935;SDS011;64614;32.062;34.834;2023-03-14T00:05:37;7.18;;;2.83;;
75935;SDS011;64614;32.062;34.834;2023-03-14T00:08:03;7.15;;;3.10;;
75935;SDS011;64614;32.062;34.834;2023-03-14T00:10:30;5.97;;;2.90;;
75935;SDS011;64614;32.062;34.834;2023-03-14T00:12:58;6.05;;;2.92;;
75935;SDS011;64614;32.062;34.834;2023-03-14T00:15:23;6.35;;;3.00;;
75935;SDS011;64614;32.062;34.834;2023-03-14T00:17:49;8.18;;;3.10;;
75935;SDS011;64614;32.062;34.834;2023-03-14T00:20:15;6.32;;;3.00;;
75935;SDS011;64614;32.062;34.834;2023-03-14T00:22:41;7.13;;;3.17;;
75935;SDS011;64614;32.062;34.834;2023-03-14T00:25:07;6.22;;;2.72;;
75935;SDS011;64614;32.062;34.834;2023-03-14T00:27:36;7.15;;;3.00;;
75935;SDS011;64614;32.062;34.834;2023-03-14T00:32:38;6.63;;;2.80;;
75935;SDS011;64614;32.062;34.834;2023-03-14T00:35:04;7.40;;;2.90;;
75935;SDS011;64614;32.062;34.834;2023-03-14T00:39:55;6.35;;;2.90;;
75935;SDS011;64614;32.062;34.834;2023-03-14T00:42:22;7.65;;;2.67;;
75935;SDS011;64614;32.062;34.834;2023-03-14T00:44:50;4.70;;;2.22;;
75935;SDS011;64614;32.062;34.834;2023-03-14T00:47:15;6.63;;;2.63;;
75935;SDS011;64614;32.062;34.834;2023-03-14T00:49:41;7.68;;;2.92;;
75935;SDS011;64614;32.062;34.834;2023-03-14T00:52:08;5.72;;;3.00;;
75935;SDS011;64614;32.062;34.834;2023-03-14T00:54:34;5.82;;;2.60;;
75935;SDS011;64614;32.062;34.834;2023-03-14T00:57:00;5.72;;;2.50;;
75935;SDS011;64614;32.062;34.834;2023-03-14T00:59:26;6.15;;;2.70;;
75935;SDS011;64614;32.062;34.834;2023-03-14T01:01:51;7.22;;;2.60;;
75935;SDS011;64614;32.062;34.834;2023-03-14T01:04:17;7.35;;;2.90;;
75935;SDS011;64614;32.062;34.834;2023-03-14T01:06:43;5.20;;;2.65;;
75935;SDS011;64614;32.062;34.834;2023-03-14T01:09:08;6.63;;;2.50;;
75935;SDS011;64614;32.062;34.834;2023-03-14T01:11:34;6.07;;;2.58;;
75935;SDS011;64614;32.062;34.834;2023-03-14T01:14:01;4.97;;;2.42;;
75935;SDS011;64614;32.062;34.834;2023-03-14T01:16:29;5.88;;;2.50;;
75935;SDS011;64614;32.062;34.834;2023-03-14T01:18:57;6.63;;;2.60;;
75935;SDS011;64614;32.062;34.834;2023-03-14T01:21:23;5.63;;;2.30;;
75935;SDS011;64614;32.062;34.834;2023-03-14T01:23:51;5.30;;;2.38;;
75935;SDS011;64614;32.062;34.834;2023-03-14T01:26:23;4.85;;;2.28;;
75935;SDS011;64614;32.062;34.834;2023-03-14T01:28:52;5.10;;;2.15;;
75935;SDS011;64614;32.062;34.834;2023-03-14T01:31:19;5.38;;;2.42;;
75935;SDS011;64614;32.062;34.834;2023-03-14T01:33:45;7.03;;;2.67;;
75935;SDS011;64614;32.062;34.834;2023-03-14T01:36:12;6.00;;;2.55;;
75935;SDS011;64614;32.062;34.834;2023-03-14T01:38:38;4.57;;;2.00;;
75935;SDS011;64614;32.062;34.834;2023-03-14T01:41:05;6.07;;;2.17;;
75935;SDS011;64614;32.062;34.834;2023-03-14T01:43:33;5.15;;;2.25;;
75935;SDS011;64614;32.062;34.834;2023-03-14T01:48:35;4.80;;;2.10;;
75935;SDS011;64614;32.062;34.834;2023-03-14T01:51:07;5.22;;;2.38;;
75935;SDS011;64614;32.062;34.834;2023-03-14T01:53:36;6.63;;;1.98;;
75935;SDS011;64614;32.062;34.834;2023-03-14T01:56:04;7.10;;;2.10;;
75935;SDS011;64614;32.062;34.834;2023-03-14T02:00:57;3.75;;;2.00;;
75935;SDS011;64614;32.062;34.834;2023-03-14T02:03:24;4.15;;;2.00;;
75935;SDS011;64614;32.062;34.834;2023-03-14T02:05:52;5.25;;;1.88;;
75935;SDS011;64614;32.062;34.834;2023-03-14T02:08:22;5.78;;;2.10;;
75935;SDS011;64614;32.062;34.834;2023-03-14T02:10:49;4.82;;;1.92;;
75935;SDS011;64614;32.062;34.834;2023-03-14T02:13:17;5.07;;;1.88;;
75935;SDS011;64614;32.062;34.834;2023-03-14T02:15:45;4.72;;;1.80;;
75935;SDS011;64614;32.062;34.834;2023-03-14T02:18:14;5.47;;;1.98;;
75935;SDS011;64614;32.062;34.834;2023-03-14T02:27:23;4.38;;;1.70;;
75935;SDS011;64614;32.062;34.834;2023-03-14T02:29:39;5.18;;;1.70;;
75935;SDS011;64614;32.062;34.834;2023-03-14T02:32:11;4.55;;;1.80;;
75935;SDS011;64614;32.062;34.834;2023-03-14T02:34:39;4.43;;;1.77;;
75935;SDS011;64614;32.062;34.834;2023-03-14T02:39:38;3.85;;;1.73;;
75935;SDS011;64614;32.062;34.834;2023-03-14T02:44:52;4.15;;;1.63;;
75935;SDS011;64614;32.062;34.834;2023-03-14T02:47:21;4.00;;;1.67;;
75935;SDS011;64614;32.062;34.834;2023-03-14T02:52:26;3.60;;;1.50;;
75935;SDS011;64614;32.062;34.834;2023-03-14T02:54:53;3.70;;;1.50;;
75935;SDS011;64614;32.062;34.834;2023-03-14T02:57:19;4.97;;;1.70;;
75935;SDS011;64614;32.062;34.834;2023-03-14T02:59:46;4.10;;;1.45;;
75935;SDS011;64614;32.062;34.834;2023-03-14T03:02:12;3.28;;;1.60;;
75935;SDS011;64614;32.062;34.834;2023-03-14T03:04:38;6.05;;;1.90;;
75935;SDS011;64614;32.062;34.834;2023-03-14T03:07:03;4.22;;;1.50;;
75935;SDS011;64614;32.062;34.834;2023-03-14T03:09:29;4.20;;;1.52;;
75935;SDS011;64614;32.062;34.834;2023-03-14T03:11:55;4.68;;;1.80;;
75935;SDS011;64614;32.062;34.834;2023-03-14T03:14:21;4.53;;;1.50;;
75935;SDS011;64614;32.062;34.834;2023-03-14T03:16:46;2.58;;;1.23;;
75935;SDS011;64614;32.062;34.834;2023-03-14T03:19:12;4.35;;;1.67;;
75935;SDS011;64614;32.062;34.834;2023-03-14T03:24:44;3.30;;;1.60;;
75935;SDS011;64614;32.062;34.834;2023-03-14T03:27:09;4.22;;;1.65;;
75935;SDS011;64614;32.062;34.834;2023-03-14T03:29:37;5.15;;;1.52;;
75935;SDS011;64614;32.062;34.834;2023-03-14T03:32:03;4.20;;;1.60;;
75935;SDS011;64614;32.062;34.834;2023-03-14T03:34:29;5.18;;;1.58;;
75935;SDS011;64614;32.062;34.834;2023-03-14T03:36:58;3.55;;;1.58;;
75935;SDS011;64614;32.062;34.834;2023-03-14T03:44:24;3.63;;;1.33;;
75935;SDS011;64614;32.062;34.834;2023-03-14T03:49:31;4.75;;;1.45;;
75935;SDS011;64614;32.062;34.834;2023-03-14T03:51:57;3.92;;;1.52;;
75935;SDS011;64614;32.062;34.834;2023-03-14T03:54:23;5.45;;;1.42;;
75935;SDS011;64614;32.062;34.834;2023-03-14T03:56:49;5.97;;;1.60;;
75935;SDS011;64614;32.062;34.834;2023-03-14T03:59:14;1.90;;;1.15;;
75935;SDS011;64614;32.062;34.834;2023-03-14T04:04:23;4.03;;;1.40;;
75935;SDS011;64614;32.062;34.834;2023-03-14T04:06:48;3.83;;;1.52;;
75935;SDS011;64614;32.062;34.834;2023-03-14T04:09:14;3.33;;;1.23;;
75935;SDS011;64614;32.062;34.834;2023-03-14T04:11:40;3.85;;;1.40;;
75935;SDS011;64614;32.062;34.834;2023-03-14T04:14:07;5.65;;;1.42;;
75935;SDS011;64614;32.062;34.834;2023-03-14T04:16:33;4.72;;;1.50;;
75935;SDS011;64614;32.062;34.834;2023-03-14T04:19:00;2.47;;;1.25;;
75935;SDS011;64614;32.062;34.834;2023-03-14T04:24:04;4.25;;;1.50;;
75935;SDS011;64614;32.062;34.834;2023-03-14T04:26:30;4.97;;;1.48;;
75935;SDS011;64614;32.062;34.834;2023-03-14T04:28:56;5.72;;;1.60;;
75935;SDS011;64614;32.062;34.834;2023-03-14T04:31:22;4.30;;;1.63;;
75935;SDS011;64614;32.062;34.834;2023-03-14T04:33:48;4.57;;;1.60;;
75935;SDS011;64614;32.062;34.834;2023-03-14T04:36:13;2.97;;;1.35;;
75935;SDS011;64614;32.062;34.834;2023-03-14T04:38:39;4.90;;;1.80;;
75935;SDS011;64614;32.062;34.834;2023-03-14T04:56:38;5.07;;;1.42;;
75935;SDS011;64614;32.062;34.834;2023-03-14T05:01:40;6.93;;;2.10;;
75935;SDS011;64614;32.062;34.834;2023-03-14T05:14:29;5.88;;;1.60;;
75935;SDS011;64614;32.062;34.834;2023-03-14T05:16:56;5.97;;;1.92;;
75935;SDS011;64614;32.062;34.834;2023-03-14T05:19:22;6.15;;;1.60;;
75935;SDS011;64614;32.062;34.834;2023-03-14T05:21:47;5.13;;;1.75;;
75935;SDS011;64614;32.062;34.834;2023-03-14T05:24:13;5.70;;;1.48;;
75935;SDS011;64614;32.062;34.834;2023-03-14T05:26:40;5.97;;;1.70;;
75935;SDS011;64614;32.062;34.834;2023-03-14T05:29:06;4.38;;;1.50;;
75935;SDS011;64614;32.062;34.834;2023-03-14T05:31:31;8.13;;;2.08;;
75935;SDS011;64614;32.062;34.834;2023-03-14T05:33:59;8.80;;;2.10;;
75935;SDS011;64614;32.062;34.834;2023-03-14T05:36:24;7.70;;;1.77;;
75935;SDS011;64614;32.062;34.834;2023-03-14T05:41:25;5.45;;;1.60;;
75935;SDS011;64614;32.062;34.834;2023-03-14T05:43:51;3.88;;;1.50;;
75935;SDS011;64614;32.062;34.834;2023-03-14T05:46:16;5.18;;;1.40;;
75935;SDS011;64614;32.062;34.834;2023-03-14T05:48:42;6.18;;;1.58;;
75935;SDS011;64614;32.062;34.834;2023-03-14T05:51:09;5.13;;;1.60;;
75935;SDS011;64614;32.062;34.834;2023-03-14T05:56:11;4.93;;;1.83;;
75935;SDS011;64614;32.062;34.834;2023-03-14T06:03:47;6.68;;;1.88;;
75935;SDS011;64614;32.062;34.834;2023-03-14T06:14:46;6.80;;;1.90;;
75935;SDS011;64614;32.062;34.834;2023-03-14T06:24:57;5.35;;;1.70;;
75935;SDS011;64614;32.062;34.834;2023-03-14T06:27:23;5.20;;;1.70;;
75935;SDS011;64614;32.062;34.834;2023-03-14T06:29:50;6.38;;;1.65;;
75935;SDS011;64614;32.062;34.834;2023-03-14T06:37:26;5.13;;;1.70;;
75935;SDS011;64614;32.062;34.834;2023-03-14T06:39:53;6.07;;;1.60;;
75935;SDS011;64614;32.062;34.834;2023-03-14T06:42:23;4.03;;;1.50;;
75935;SDS011;64614;32.062;34.834;2023-03-14T06:44:48;9.30;;;1.92;;
75935;SDS011;64614;32.062;34.834;2023-03-14T06:47:14;4.85;;;1.50;;
75935;SDS011;64614;32.062;34.834;2023-03-14T06:49:39;5.00;;;1.80;;
75935;SDS011;64614;32.062;34.834;2023-03-14T06:54:36;5.93;;;1.60;;
75935;SDS011;64614;32.062;34.834;2023-03-14T06:59:32;5.53;;;1.77;;
75935;SDS011;64614;32.062;34.834;2023-03-14T07:20:05;4.22;;;1.52;;
75935;SDS011;64614;32.062;34.834;2023-03-14T07:35:30;6.03;;;1.67;;
75935;SDS011;64614;32.062;34.834;2023-03-14T07:37:55;5.18;;;1.60;;
75935;SDS011;64614;32.062;34.834;2023-03-14T07:40:22;5.22;;;1.60;;
75935;SDS011;64614;32.062;34.834;2023-03-14T07:42:48;4.72;;;1.60;;
75935;SDS011;64614;32.062;34.834;2023-03-14T08:18:53;3.63;;;1.45;;
75935;SDS011;64614;32.062;34.834;2023-03-14T08:23:53;3.65;;;1.40;;
75935;SDS011;64614;32.062;34.834;2023-03-14T08:26:20;5.15;;;1.40;;
75935;SDS011;64614;32.062;34.834;2023-03-14T08:28:46;4.45;;;1.60;;
75935;SDS011;64614;32.062;34.834;2023-03-14T08:31:12;3.60;;;1.30;;
75935;SDS011;64614;32.062;34.834;2023-03-14T08:47:28;4.22;;;1.58;;
75935;SDS011;64614;32.062;34.834;2023-03-14T08:49:54;5.10;;;1.85;;
75935;SDS011;64614;32.062;34.834;2023-03-14T08:52:20;5.82;;;1.70;;
75935;SDS011;64614;32.062;34.834;2023-03-14T09:15:27;6.97;;;1.85;;
75935;SDS011;64614;32.062;34.834;2023-03-14T09:23:03;4.00;;;1.63;;
75935;SDS011;64614;32.062;34.834;2023-03-14T09:25:29;4.72;;;1.70;;
75935;SDS011;64614;32.062;34.834;2023-03-14T09:33:05;5.53;;;1.55;;
75935;SDS011;64614;32.062;34.834;2023-03-14T09:35:30;5.13;;;1.50;;
75935;SDS011;64614;32.062;34.834;2023-03-14T09:37:58;4.68;;;1.40;;
75935;SDS011;64614;32.062;34.834;2023-03-14T09:45:28;4.13;;;1.35;;
75935;SDS011;64614;32.062;34.834;2023-03-14T09:47:58;4.03;;;1.52;;
75935;SDS011;64614;32.062;34.834;2023-03-14T09:50:30;4.35;;;1.50;;
75935;SDS011;64614;32.062;34.834;2023-03-14T09:55:36;5.25;;;1.58;;
75935;SDS011;64614;32.062;34.834;2023-03-14T09:58:03;5.60;;;1.63;;
75935;SDS011;64614;32.062;34.834;2023-03-14T10:05:42;5.97;;;1.70;;
75935;SDS011;64614;32.062;34.834;2023-03-14T10:13:24;7.22;;;1.73;;
75935;SDS011;64614;32.062;34.834;2023-03-14T10:21:05;4.53;;;1.50;;
75935;SDS011;64614;32.062;34.834;2023-03-14T10:23:32;9.15;;;1.98;;
75935;SDS011;64614;32.062;34.834;2023-03-14T10:31:09;7.97;;;2.10;;
75935;SDS011;64614;32.062;34.834;2023-03-14T10:33:35;6.70;;;1.90;;
75935;SDS011;64614;32.062;34.834;2023-03-14T10:39:41;9.38;;;1.83;;
75935;SDS011;64614;32.062;34.834;2023-03-14T10:44:50;7.22;;;1.75;;
75935;SDS011;64614;32.062;34.834;2023-03-14T10:55:10;5.97;;;1.50;;
75935;SDS011;64614;32.062;34.834;2023-03-14T10:57:41;3.67;;;1.63;;
75935;SDS011;64614;32.062;34.834;2023-03-14T11:00:15;6.90;;;1.60;;
75935;SDS011;64614;32.062;34.834;2023-03-14T11:05:40;4.00;;;1.33;;
75935;SDS011;64614;32.062;34.834;2023-03-14T11:08:45;4.43;;;1.20;;
75935;SDS011;64614;32.062;34.834;2023-03-14T11:11:31;4.60;;;1.50;;
75935;SDS011;64614;32.062;34.834;2023-03-14T11:37:49;2.83;;;1.17;;
75935;SDS011;64614;32.062;34.834;2023-03-14T11:45:35;4.15;;;1.13;;
75935;SDS011;64614;32.062;34.834;2023-03-14T11:50:32;2.78;;;1.10;;
75935;SDS011;64614;32.062;34.834;2023-03-14T11:58:15;2.55;;;1.10;;
75935;SDS011;64614;32.062;34.834;2023-03-14T12:00:54;2.72;;;1.10;;
75935;SDS011;64614;32.062;34.834;2023-03-14T12:11:15;2.80;;;1.20;;
75935;SDS011;64614;32.062;34.834;2023-03-14T12:13:47;2.17;;;1.00;;
75935;SDS011;64614;32.062;34.834;2023-03-14T12:32:06;5.00;;;1.20;;
75935;SDS011;64614;32.062;34.834;2023-03-14T13:00:31;6.43;;;1.98;;
75935;SDS011;64614;32.062;34.834;2023-03-14T13:21:07;4.97;;;1.33;;
75935;SDS011;64614;32.062;34.834;2023-03-14T13:26:40;4.22;;;1.85;;
75935;SDS011;64614;32.062;34.834;2023-03-14T13:34:19;5.20;;;1.40;;
75935;SDS011;64614;32.062;34.834;2023-03-14T13:36:46;5.28;;;1.50;;
75935;SDS011;64614;32.062;34.834;2023-03-14T13:39:17;5.75;;;1.50;;
75935;SDS011;64614;32.062;34.834;2023-03-14T13:41:44;4.43;;;1.50;;
75935;SDS011;64614;32.062;34.834;2023-03-14T13:44:14;4.60;;;1.40;;
75935;SDS011;64614;32.062;34.834;2023-03-14T13:46:44;6.20;;;1.38;;
75935;SDS011;64614;32.062;34.834;2023-03-14T13:49:11;5.28;;;1.40;;
75935;SDS011;64614;32.062;34.834;2023-03-14T13:51:44;3.17;;;1.30;;
75935;SDS011;64614;32.062;34.834;2023-03-14T13:54:20;3.42;;;1.65;;
75935;SDS011;64614;32.062;34.834;2023-03-14T13:56:47;3.92;;;1.40;;
75935;SDS011;64614;32.062;34.834;2023-03-14T14:05:14;5.97;;;1.40;;
75935;SDS011;64614;32.062;34.834;2023-03-14T14:07:42;5.90;;;1.80;;
75935;SDS011;64614;32.062;34.834;2023-03-14T14:10:10;4.93;;;1.40;;
75935;SDS011;64614;32.062;34.834;2023-03-14T14:12:42;4.80;;;1.48;;
75935;SDS011;64614;32.062;34.834;2023-03-14T14:15:26;4.78;;;1.60;;
75935;SDS011;64614;32.062;34.834;2023-03-14T14:18:12;4.47;;;1.42;;
75935;SDS011;64614;32.062;34.834;2023-03-14T14:20:44;5.57;;;1.88;;
75935;SDS011;64614;32.062;34.834;2023-03-14T14:23:12;4.57;;;1.70;;
75935;SDS011;64614;32.062;34.834;2023-03-14T14:25:50;5.45;;;1.92;;
75935;SDS011;64614;32.062;34.834;2023-03-14T14:28:22;5.85;;;1.90;;
75935;SDS011;64614;32.062;34.834;2023-03-14T14:31:01;4.72;;;1.60;;
75935;SDS011;64614;32.062;34.834;2023-03-14T14:33:43;5.32;;;1.48;;
75935;SDS011;64614;32.062;34.834;2023-03-14T14:38:58;3.90;;;1.60;;
75935;SDS011;64614;32.062;34.834;2023-03-14T14:41:29;3.78;;;1.80;;
75935;SDS011;64614;32.062;34.834;2023-03-14T14:43:59;3.72;;;1.60;;
75935;SDS011;64614;32.062;34.834;2023-03-14T14:56:17;5.25;;;1.45;;
75935;SDS011;64614;32.062;34.834;2023-03-14T14:59:00;5.35;;;1.48;;
75935;SDS011;64614;32.062;34.834;2023-03-14T15:24:36;3.92;;;1.55;;
75935;SDS011;64614;32.062;34.834;2023-03-14T15:27:04;5.15;;;1.63;;
75935;SDS011;64614;32.062;34.834;2023-03-14T15:29:35;2.88;;;1.40;;
75935;SDS011;64614;32.062;34.834;2023-03-14T15:32:03;3.38;;;1.45;;
75935;SDS011;64614;32.062;34.834;2023-03-14T15:34:29;4.28;;;1.60;;
75935;SDS011;64614;32.062;34.834;2023-03-14T15:36:56;2.53;;;1.35;;
75935;SDS011;64614;32.062;34.834;2023-03-14T15:39:22;4.18;;;1.60;;
75935;SDS011;64614;32.062;34.834;2023-03-14T15:41:47;2.78;;;1.33;;
75935;SDS011;64614;32.062;34.834;2023-03-14T15:44:14;5.00;;;1.50;;
75935;SDS011;64614;32.062;34.834;2023-03-14T15:46:40;3.75;;;1.40;;
75935;SDS011;64614;32.062;34.834;2023-03-14T15:49:07;4.47;;;1.52;;
75935;SDS011;64614;32.062;34.834;2023-03-14T15:51:35;3.00;;;1.25;;
75935;SDS011;64614;32.062;34.834;2023-03-14T15:54:00;3.20;;;1.40;;
75935;SDS011;64614;32.062;34.834;2023-03-14T15:56:26;4.68;;;1.40;;
75935;SDS011;64614;32.062;34.834;2023-03-14T15:58:56;3.08;;;1.33;;
75935;SDS011;64614;32.062;34.834;2023-03-14T16:01:22;2.53;;;1.20;;
75935;SDS011;64614;32.062;34.834;2023-03-14T16:03:48;2.85;;;1.40;;
75935;SDS011;64614;32.062;34.834;2023-03-14T16:06:16;3.67;;;1.30;;
75935;SDS011;64614;32.062;34.834;2023-03-14T16:08:45;3.58;;;1.50;;
75935;SDS011;64614;32.062;34.834;2023-03-14T16:11:11;3.15;;;1.20;;
75935;SDS011;64614;32.062;34.834;2023-03-14T16:13:40;3.60;;;1.30;;
75935;SDS011;64614;32.062;34.834;2023-03-14T16:16:06;4.05;;;1.50;;
75935;SDS011;64614;32.062;34.834;2023-03-14T16:18:33;3.95;;;1.55;;
75935;SDS011;64614;32.062;34.834;2023-03-14T16:21:09;4.57;;;1.77;;
75935;SDS011;64614;32.062;34.834;2023-03-14T16:23:37;4.00;;;1.70;;
75935;SDS011;64614;32.062;34.834;2023-03-14T16:26:06;4.25;;;1.70;;
75935;SDS011;64614;32.062;34.834;2023-03-14T16:32:06;4.35;;;1.88;;
75935;SDS011;64614;32.062;34.834;2023-03-14T16:34:41;3.10;;;1.48;;
75935;SDS011;64614;32.062;34.834;2023-03-14T16:39:33;3.63;;;1.77;;
75935;SDS011;64614;32.062;34.834;2023-03-14T16:41:59;5.03;;;1.80;;
75935;SDS011;64614;32.062;34.834;2023-03-14T16:44:26;6.90;;;1.90;;
75935;SDS011;64614;32.062;34.834;2023-03-14T16:46:51;6.18;;;1.80;;
75935;SDS011;64614;32.062;34.834;2023-03-14T16:49:32;6.80;;;2.05;;
75935;SDS011;64614;32.062;34.834;2023-03-14T16:51:58;15.45;;;5.28;;
75935;SDS011;64614;32.062;34.834;2023-03-14T16:54:23;38.78;;;14.20;;
75935;SDS011;64614;32.062;34.834;2023-03-14T16:56:51;50.03;;;19.45;;
75935;SDS011;64614;32.062;34.834;2023-03-14T16:59:18;65.22;;;23.42;;
75935;SDS011;64614;32.062;34.834;2023-03-14T17:10:07;101.40;;;39.95;;
75935;SDS011;64614;32.062;34.834;2023-03-14T17:18:35;109.22;;;48.10;;
75935;SDS011;64614;32.062;34.834;2023-03-14T17:23:37;114.72;;;48.50;;
75935;SDS011;64614;32.062;34.834;2023-03-14T17:26:03;115.13;;;49.83;;
75935;SDS011;64614;32.062;34.834;2023-03-14T17:28:31;121.85;;;50.05;;
75935;SDS011;64614;32.062;34.834;2023-03-14T17:31:01;115.47;;;49.28;;
75935;SDS011;64614;32.062;34.834;2023-03-14T17:33:35;112.25;;;49.67;;
75935;SDS011;64614;32.062;34.834;2023-03-14T17:42:44;106.32;;;44.88;;
75935;SDS011;64614;32.062;34.834;2023-03-14T17:45:10;101.97;;;45.70;;
75935;SDS011;64614;32.062;34.834;2023-03-14T18:01:17;88.63;;;39.22;;
75935;SDS011;64614;32.062;34.834;2023-03-14T18:03:43;86.13;;;38.72;;
75935;SDS011;64614;32.062;34.834;2023-03-14T18:06:28;78.32;;;36.22;;
75935;SDS011;64614;32.062;34.834;2023-03-14T18:08:56;77.72;;;35.75;;
75935;SDS011;64614;32.062;34.834;2023-03-14T18:36:18;55.65;;;26.73;;
75935;SDS011;64614;32.062;34.834;2023-03-14T18:46:26;52.28;;;24.42;;
75935;SDS011;64614;32.062;34.834;2023-03-14T18:48:55;53.03;;;25.45;;
75935;SDS011;64614;32.062;34.834;2023-03-14T18:51:22;48.05;;;24.13;;
75935;SDS011;64614;32.062;34.834;2023-03-14T18:53:50;48.42;;;23.48;;
75935;SDS011;64614;32.062;34.834;2023-03-14T18:58:41;48.20;;;22.02;;
75935;SDS011;64614;32.062;34.834;2023-03-14T19:01:07;47.28;;;20.83;;
75935;SDS011;64614;32.062;34.834;2023-03-14T19:03:34;43.28;;;20.20;;
75935;SDS011;64614;32.062;34.834;2023-03-14T19:06:03;45.42;;;20.98;;
75935;SDS011;64614;32.062;34.834;2023-03-14T19:08:33;41.25;;;20.73;;
75935;SDS011;64614;32.062;34.834;2023-03-14T19:11:02;39.05;;;18.63;;
75935;SDS011;64614;32.062;34.834;2023-03-14T19:13:30;42.88;;;19.75;;
75935;SDS011;64614;32.062;34.834;2023-03-14T19:15:58;37.05;;;18.45;;
75935;SDS011;64614;32.062;34.834;2023-03-14T19:18:25;39.20;;;18.25;;
75935;SDS011;64614;32.062;34.834;2023-03-14T19:20:56;37.15;;;17.63;;
75935;SDS011;64614;32.062;34.834;2023-03-14T19:23:23;38.13;;;17.77;;
75935;SDS011;64614;32.062;34.834;2023-03-14T19:25:51;37.90;;;17.35;;
75935;SDS011;64614;32.062;34.834;2023-03-14T19:28:18;34.95;;;16.33;;
75935;SDS011;64614;32.062;34.834;2023-03-14T19:30:48;31.65;;;15.60;;
75935;SDS011;64614;32.062;34.834;2023-03-14T19:33:17;34.28;;;16.15;;
75935;SDS011;64614;32.062;34.834;2023-03-14T19:35:43;32.80;;;15.27;;
75935;SDS011;64614;32.062;34.834;2023-03-14T19:38:13;31.65;;;14.25;;
75935;SDS011;64614;32.062;34.834;2023-03-14T19:43:08;27.25;;;14.40;;
75935;SDS011;64614;32.062;34.834;2023-03-14T19:45:35;31.30;;;13.63;;
75935;SDS011;64614;32.062;34.834;2023-03-14T19:48:09;28.25;;;14.20;;
75935;SDS011;64614;32.062;34.834;2023-03-14T19:53:02;28.70;;;12.77;;
75935;SDS011;64614;32.062;34.834;2023-03-14T19:55:28;28.58;;;13.45;;
75935;SDS011;64614;32.062;34.834;2023-03-14T19:57:55;25.95;;;12.73;;
75935;SDS011;64614;32.062;34.834;2023-03-14T20:00:21;26.42;;;12.63;;
75935;SDS011;64614;32.062;34.834;2023-03-14T20:02:49;25.48;;;12.15;;
75935;SDS011;64614;32.062;34.834;2023-03-14T20:05:20;23.67;;;12.35;;
75935;SDS011;64614;32.062;34.834;2023-03-14T20:07:47;22.98;;;11.60;;
75935;SDS011;64614;32.062;34.834;2023-03-14T20:10:14;24.27;;;11.65;;
75935;SDS011;64614;32.062;34.834;2023-03-14T20:17:53;20.50;;;10.25;;
75935;SDS011;64614;32.062;34.834;2023-03-14T20:20:19;21.65;;;10.75;;
75935;SDS011;64614;32.062;34.834;2023-03-14T20:25:20;20.52;;;9.98;;
75935;SDS011;64614;32.062;34.834;2023-03-14T20:30:21;22.42;;;9.82;;
75935;SDS011;64614;32.062;34.834;2023-03-14T20:32:48;19.40;;;9.55;;
75935;SDS011;64614;32.062;34.834;2023-03-14T20:35:15;19.02;;;9.02;;
75935;SDS011;64614;32.062;34.834;2023-03-14T20:37:51;18.15;;;8.52;;
75935;SDS011;64614;32.062;34.834;2023-03-14T20:40:18;16.67;;;8.48;;
75935;SDS011;64614;32.062;34.834;2023-03-14T20:45:21;16.42;;;7.88;;
75935;SDS011;64614;32.062;34.834;2023-03-14T20:47:48;17.05;;;8.35;;
75935;SDS011;64614;32.062;34.834;2023-03-14T20:50:14;16.20;;;8.05;;
75935;SDS011;64614;32.062;34.834;2023-03-14T20:52:40;14.65;;;7.25;;
75935;SDS011;64614;32.062;34.834;2023-03-14T20:55:06;14.57;;;7.45;;
75935;SDS011;64614;32.062;34.834;2023-03-14T20:57:32;14.43;;;7.72;;
75935;SDS011;64614;32.062;34.834;2023-03-14T21:03:17;14.40;;;6.68;;
75935;SDS011;64614;32.062;34.834;2023-03-14T21:29:03;13.50;;;6.40;;
75935;SDS011;64614;32.062;34.834;2023-03-14T21:31:31;11.57;;;6.05;;
75935;SDS011;64614;32.062;34.834;2023-03-14T21:36:33;12.80;;;5.93;;
75935;SDS011;64614;32.062;34.834;2023-03-14T21:39:03;14.05;;;6.28;;
75935;SDS011;64614;32.062;34.834;2023-03-14T22:02:05;10.27;;;4.80;;
75935;SDS011;64614;32.062;34.834;2023-03-14T22:04:36;11.38;;;4.80;;
75935;SDS011;64614;32.062;34.834;2023-03-14T22:07:03;10.90;;;4.65;;
75935;SDS011;64614;32.062;34.834;2023-03-14T22:12:08;9.88;;;4.40;;
75935;SDS011;64614;32.062;34.834;2023-03-14T22:24:57;9.30;;;4.32;;
75935;SDS011;64614;32.062;34.834;2023-03-14T22:27:24;8.90;;;4.20;;
75935;SDS011;64614;32.062;34.834;2023-03-14T22:29:50;9.88;;;4.03;;
75935;SDS011;64614;32.062;34.834;2023-03-14T22:32:17;8.82;;;4.03;;
75935;SDS011;64614;32.062;34.834;2023-03-14T22:34:42;9.05;;;4.35;;
75935;SDS011;64614;32.062;34.834;2023-03-14T22:37:11;9.02;;;4.57;;
75935;SDS011;64614;32.062;34.834;2023-03-14T22:39:38;9.25;;;4.18;;
75935;SDS011;64614;32.062;34.834;2023-03-14T22:47:11;8.60;;;4.00;;
75935;SDS011;64614;32.062;34.834;2023-03-14T22:49:40;7.43;;;3.60;;
75935;SDS011;64614;32.062;34.834;2023-03-14T22:52:06;8.15;;;3.45;;
75935;SDS011;64614;32.062;34.834;2023-03-14T23:10:02;6.20;;;3.25;;
75935;SDS011;64614;32.062;34.834;2023-03-14T23:15:03;7.18;;;3.08;;
75935;SDS011;64614;32.062;34.834;2023-03-14T23:17:32;6.53;;;3.22;;
75935;SDS011;64614;32.062;34.834;2023-03-14T23:19:58;8.32;;;3.42;;
75935;SDS011;64614;32.062;34.834;2023-03-14T23:22:24;7.32;;;3.20;;
75935;SDS011;64614;32.062;34.834;2023-03-14T23:24:50;7.55;;;3.42;;
75935;SDS011;64614;32.062;34.834;2023-03-14T23:29:52;7.95;;;3.25;;
75935;SDS011;64614;32.062;34.834;2023-03-14T23:32:18;6.85;;;3.28;;
75935;SDS011;64614;32.062;34.834;2023-03-14T23:37:19;6.65;;;3.40;;
75935;SDS011;64614;32.062;34.834;2023-03-14T23:42:23;6.78;;;3.13;;
75935;SDS011;64614;32.062;34.834;2023-03-14T23:44:52;7.40;;;3.15;;
75935;SDS011;64614;32.062;34.834;2023-03-14T23:49:46;6.95;;;3.40;;
75935;SDS011;64614;32.062;34.834;2023-03-14T23:54:42;6.43;;;2.80;;
75935;SDS011;64614;32.062;34.834;2023-03-14T23:57:07;7.30;;;3.10;;
75935;SDS011;64614;32.062;34.834;2023-03-14T23:59:35;5.93;;;2.90;;
